createdAt,value
2023-02-07T00:01:30.628Z,16.27
2023-02-07T00:03:59.700Z,13.95
2023-02-07T00:06:33.608Z,14.52
2023-02-07T00:09:04.218Z,14.15
2023-02-07T00:11:31.172Z,12.40
2023-02-07T00:13:59.991Z,12.00
2023-02-07T00:16:27.885Z,11.88
2023-02-07T00:18:55.564Z,11.57
2023-02-07T00:21:25.065Z,11.70
2023-02-07T00:23:53.508Z,12.43
2023-02-07T00:26:23.743Z,11.75
2023-02-07T00:28:53.748Z,11.50
2023-02-07T00:31:33.320Z,12.02
2023-02-07T00:34:04.021Z,11.55
2023-02-07T00:36:34.108Z,12.32
2023-02-07T00:39:05.442Z,11.93
2023-02-07T00:41:32.648Z,12.07
2023-02-07T00:43:59.605Z,12.00
2023-02-07T00:46:26.691Z,11.57
2023-02-07T00:48:53.560Z,12.20
2023-02-07T00:51:20.846Z,11.43
2023-02-07T00:53:48.390Z,11.35
2023-02-07T00:56:15.732Z,11.60
2023-02-07T00:58:42.529Z,11.80
2023-02-07T01:01:09.811Z,11.25
2023-02-07T01:03:36.724Z,11.25
2023-02-07T01:06:03.922Z,9.85
2023-02-07T01:08:30.967Z,11.15
2023-02-07T01:11:04.843Z,10.88
2023-02-07T01:13:31.998Z,10.45
2023-02-07T01:15:59.001Z,11.27
2023-02-07T01:18:26.590Z,9.50
2023-02-07T01:20:53.547Z,9.18
2023-02-07T01:23:20.452Z,8.73
2023-02-07T01:25:47.489Z,6.80
2023-02-07T01:28:15.965Z,6.75
2023-02-07T01:30:45.027Z,7.10
2023-02-07T01:33:12.165Z,7.47
2023-02-07T01:35:39.536Z,6.00
2023-02-07T01:38:07.885Z,5.43
2023-02-07T01:40:38.060Z,5.80
2023-02-07T01:57:36.769Z,5.60
2023-02-07T02:00:08.528Z,5.78
2023-02-07T02:02:38.140Z,4.85
2023-02-07T02:05:07.163Z,6.68
2023-02-07T02:07:35.642Z,4.53
2023-02-07T02:10:07.520Z,4.15
2023-02-07T02:12:46.446Z,4.53
2023-02-07T02:15:16.660Z,3.67
2023-02-07T02:18:34.409Z,3.55
2023-02-07T02:21:38.817Z,4.38
2023-02-07T02:24:32.936Z,3.72
2023-02-07T02:27:33.422Z,3.78
2023-02-07T02:30:25.168Z,3.83
2023-02-07T02:33:07.285Z,3.38
2023-02-07T02:35:45.077Z,3.63
2023-02-07T02:38:53.993Z,3.70
2023-02-07T02:41:30.842Z,3.88
2023-02-07T02:44:10.918Z,4.40
2023-02-07T02:46:42.125Z,4.80
2023-02-07T02:49:13.359Z,5.22
2023-02-07T02:51:40.788Z,5.00
2023-02-07T02:54:32.426Z,4.18
2023-02-07T02:57:10.853Z,4.47
2023-02-07T03:00:25.799Z,4.07
2023-02-07T03:03:19.376Z,3.17
2023-02-07T03:06:14.536Z,2.80
2023-02-07T03:08:57.380Z,2.97
2023-02-07T03:11:26.575Z,3.00
2023-02-07T03:14:20.012Z,3.00
2023-02-07T03:17:17.313Z,3.75
2023-02-07T03:19:58.220Z,3.65
2023-02-07T03:22:28.466Z,5.40
2023-02-07T03:25:01.540Z,6.18
2023-02-07T03:27:32.037Z,6.28
2023-02-07T03:30:07.150Z,5.85
2023-02-07T03:32:39.651Z,5.60
2023-02-07T03:35:38.191Z,6.07
2023-02-07T03:38:07.030Z,6.25
2023-02-07T03:40:47.875Z,4.93
2023-02-07T03:43:27.442Z,6.13
2023-02-07T03:45:55.776Z,4.50
2023-02-07T03:48:23.365Z,4.63
2023-02-07T03:50:52.067Z,3.95
2023-02-07T03:53:22.270Z,3.78
2023-02-07T03:55:49.129Z,3.95
2023-02-07T03:58:16.260Z,4.30
2023-02-07T04:00:43.352Z,4.35
2023-02-07T04:03:10.688Z,4.88
2023-02-07T04:05:38.492Z,4.43
2023-02-07T04:08:05.825Z,5.20
2023-02-07T04:10:33.136Z,5.13
2023-02-07T04:13:00.308Z,4.50
2023-02-07T04:15:27.478Z,5.25
2023-02-07T04:17:54.543Z,5.45
2023-02-07T04:20:21.580Z,4.50
2023-02-07T04:22:48.602Z,4.35
2023-02-07T04:25:15.650Z,4.80
2023-02-07T04:27:42.822Z,4.07
2023-02-07T04:30:10.895Z,3.67
2023-02-07T04:32:38.068Z,3.80
2023-02-07T04:35:05.471Z,3.60
2023-02-07T04:37:32.413Z,3.75
2023-02-07T04:39:59.644Z,3.63
2023-02-07T04:42:26.563Z,2.92
2023-02-07T04:44:53.673Z,3.10
2023-02-07T04:47:20.822Z,3.17
2023-02-07T04:49:47.878Z,3.30
2023-02-07T04:52:15.022Z,3.20
2023-02-07T04:54:42.219Z,3.90
2023-02-07T04:57:09.357Z,4.40
2023-02-07T04:59:36.428Z,3.13
2023-02-07T05:02:03.773Z,3.45
2023-02-07T05:04:31.045Z,3.50
2023-02-07T05:06:58.152Z,3.78
2023-02-07T05:09:25.558Z,3.50
2023-02-07T05:11:52.517Z,3.80
2023-02-07T05:14:19.529Z,3.92
2023-02-07T05:16:46.806Z,4.30
2023-02-07T05:19:13.967Z,4.30
2023-02-07T05:21:40.863Z,4.38
2023-02-07T05:24:08.218Z,3.78
2023-02-07T05:26:35.327Z,3.50
2023-02-07T05:29:02.477Z,3.08
2023-02-07T05:31:48.033Z,3.50
2023-02-07T05:34:15.086Z,3.60
2023-02-07T05:36:42.323Z,5.03
2023-02-07T05:39:09.374Z,4.93
2023-02-07T05:41:36.394Z,4.22
2023-02-07T05:44:03.492Z,4.15
2023-02-07T05:46:30.618Z,3.47
2023-02-07T05:48:57.922Z,3.85
2023-02-07T05:51:24.998Z,4.10
2023-02-07T05:53:52.204Z,7.47
2023-02-07T05:56:19.203Z,7.85
2023-02-07T05:58:46.090Z,6.20
2023-02-07T06:01:13.079Z,5.07
2023-02-07T06:03:40.166Z,4.65
2023-02-07T06:06:07.494Z,4.65
2023-02-07T06:08:34.652Z,4.20
2023-02-07T06:11:01.926Z,4.85
2023-02-07T06:13:29.010Z,4.70
2023-02-07T06:15:56.236Z,5.15
2023-02-07T06:18:23.514Z,4.47
2023-02-07T06:20:51.907Z,4.53
2023-02-07T06:23:21.002Z,4.95
2023-02-07T06:25:48.036Z,5.63
2023-02-07T06:28:15.577Z,5.30
2023-02-07T06:30:43.359Z,5.28
2023-02-07T06:33:10.349Z,5.95
2023-02-07T06:35:37.862Z,7.70
2023-02-07T06:38:05.109Z,8.75
2023-02-07T06:40:32.209Z,10.68
2023-02-07T06:42:59.220Z,10.40
2023-02-07T06:45:26.312Z,10.32
2023-02-07T06:47:54.382Z,10.98
2023-02-07T06:50:21.853Z,11.07
2023-02-07T06:52:49.022Z,11.85
2023-02-07T06:55:16.506Z,15.77
2023-02-07T06:57:43.809Z,16.55
2023-02-07T07:00:12.009Z,11.75
2023-02-07T07:02:39.286Z,11.38
2023-02-07T07:05:06.646Z,11.70
2023-02-07T07:07:33.499Z,11.70
2023-02-07T07:10:00.911Z,11.45
2023-02-07T07:12:28.055Z,11.23
2023-02-07T07:14:56.810Z,10.93
2023-02-07T07:17:24.118Z,10.32
2023-02-07T07:19:51.595Z,9.20
2023-02-07T07:22:21.175Z,8.35
2023-02-07T07:24:48.364Z,7.60
2023-02-07T07:27:15.445Z,10.40
2023-02-07T07:29:42.803Z,14.75
2023-02-07T07:32:17.765Z,15.05
2023-02-07T07:34:52.203Z,12.32
2023-02-07T07:37:19.156Z,15.02
2023-02-07T07:39:46.295Z,13.25
2023-02-07T07:42:13.444Z,14.10
2023-02-07T07:44:40.507Z,14.75
2023-02-07T07:47:08.446Z,14.20
2023-02-07T07:49:35.715Z,13.90
2023-02-07T07:52:02.774Z,13.02
2023-02-07T07:54:30.327Z,11.75
2023-02-07T07:56:57.442Z,12.30
2023-02-07T07:59:24.628Z,12.02
2023-02-07T08:01:52.110Z,11.05
2023-02-07T08:04:19.240Z,10.98
2023-02-07T08:06:46.606Z,10.18
2023-02-07T08:09:13.729Z,9.65
2023-02-07T08:11:41.817Z,9.77
2023-02-07T08:14:08.863Z,11.15
2023-02-07T08:16:36.065Z,11.27
2023-02-07T08:19:03.318Z,9.90
2023-02-07T08:21:31.028Z,12.07
2023-02-07T08:23:58.103Z,13.48
2023-02-07T08:26:25.467Z,11.02
2023-02-07T08:28:52.479Z,10.13
2023-02-07T08:31:19.656Z,10.48
2023-02-07T08:33:46.903Z,10.98
2023-02-07T08:49:36.273Z,8.93
2023-02-07T08:52:03.376Z,8.23
2023-02-07T08:54:31.017Z,9.13
2023-02-07T08:56:57.873Z,14.00
2023-02-07T08:59:24.900Z,16.30
2023-02-07T09:01:51.992Z,16.35
2023-02-07T09:04:18.863Z,18.30
2023-02-07T09:06:45.751Z,20.38
2023-02-07T09:09:12.812Z,22.27
2023-02-07T09:11:39.903Z,22.13
2023-02-07T09:14:06.737Z,21.65
2023-02-07T09:16:33.683Z,15.60
2023-02-07T09:19:00.618Z,11.02
2023-02-07T09:21:27.618Z,9.30
2023-02-07T09:23:54.694Z,7.60
2023-02-07T09:26:26.511Z,7.90
2023-02-07T09:28:53.454Z,7.53
2023-02-07T09:31:21.700Z,8.32
2023-02-07T09:33:48.705Z,7.38
2023-02-07T09:36:26.240Z,8.15
2023-02-07T09:38:53.458Z,7.80
2023-02-07T09:41:59.428Z,7.85
2023-02-07T09:45:04.645Z,13.85
2023-02-07T09:47:39.084Z,28.35
2023-02-07T09:50:19.994Z,23.48
2023-02-07T09:52:58.004Z,16.13
2023-02-07T09:55:57.120Z,8.80
2023-02-07T09:58:50.632Z,8.27
2023-02-07T10:01:56.186Z,9.00
2023-02-07T10:04:30.874Z,9.27
2023-02-07T10:07:00.117Z,8.75
2023-02-07T10:09:47.369Z,9.95
2023-02-07T10:12:35.876Z,9.70
2023-02-07T10:15:34.904Z,9.13
2023-02-07T10:18:23.842Z,10.27
2023-02-07T10:21:01.707Z,10.40
2023-02-07T10:23:50.163Z,9.98
2023-02-07T10:26:52.640Z,11.13
2023-02-07T10:29:59.373Z,10.73
2023-02-07T10:32:31.654Z,11.20
2023-02-07T10:35:16.398Z,9.73
2023-02-07T10:37:46.888Z,11.38
2023-02-07T10:40:33.211Z,11.65
2023-02-07T10:43:32.680Z,12.02
2023-02-07T10:46:09.892Z,11.68
2023-02-07T10:48:38.153Z,12.77
2023-02-07T10:51:32.986Z,11.95
2023-02-07T10:54:13.653Z,13.15
2023-02-07T10:56:48.118Z,12.25
2023-02-07T10:59:40.626Z,12.50
2023-02-07T11:02:29.350Z,12.45
2023-02-07T11:05:07.335Z,11.85
2023-02-07T11:07:46.149Z,11.75
2023-02-07T11:10:25.317Z,11.07
2023-02-07T11:12:58.835Z,11.18
2023-02-07T11:15:55.068Z,10.63
2023-02-07T11:18:28.331Z,9.55
2023-02-07T11:20:56.410Z,10.50
2023-02-07T11:23:25.367Z,10.32
2023-02-07T11:25:56.392Z,9.95
2023-02-07T11:28:33.522Z,10.05
2023-02-07T11:31:10.184Z,9.15
2023-02-07T11:33:37.531Z,8.70
2023-02-07T11:36:31.770Z,9.38
2023-02-07T11:39:00.729Z,8.93
2023-02-07T11:41:32.925Z,7.75
2023-02-07T11:44:16.131Z,8.10
2023-02-07T11:49:35.027Z,7.22
2023-02-07T11:52:03.262Z,6.95
2023-02-07T11:54:32.535Z,6.95
2023-02-07T11:57:15.053Z,7.50
2023-02-07T12:00:19.887Z,7.13
2023-02-07T12:03:08.848Z,6.05
2023-02-07T12:05:45.256Z,5.20
2023-02-07T12:08:19.829Z,4.82
2023-02-07T12:10:57.479Z,5.90
2023-02-07T12:13:44.367Z,5.00
2023-02-07T12:16:21.788Z,5.35
2023-02-07T12:18:57.882Z,5.97
2023-02-07T12:21:40.925Z,6.10
2023-02-07T12:24:23.645Z,5.50
2023-02-07T12:27:05.144Z,5.47
2023-02-07T12:30:09.576Z,5.30
2023-02-07T12:32:47.302Z,5.60
2023-02-07T12:35:57.484Z,5.00
2023-02-07T12:38:32.745Z,5.40
2023-02-07T12:41:24.442Z,5.18
2023-02-07T12:44:23.652Z,5.07
2023-02-07T12:47:20.298Z,5.82
2023-02-07T12:50:20.346Z,6.93
2023-02-07T12:53:15.227Z,6.88
2023-02-07T12:56:02.456Z,6.57
2023-02-07T12:59:06.512Z,6.65
2023-02-07T13:02:02.730Z,6.63
2023-02-07T13:05:05.948Z,6.32
2023-02-07T13:07:59.162Z,6.22
2023-02-07T13:11:00.994Z,6.13
2023-02-07T13:14:18.258Z,5.50
2023-02-07T13:17:16.558Z,5.05
2023-02-07T13:20:09.802Z,5.10
2023-02-07T13:22:57.958Z,4.82
2023-02-07T13:25:32.099Z,4.63
2023-02-07T13:28:05.349Z,6.28
2023-02-07T13:30:35.803Z,4.80
2023-02-07T13:33:28.014Z,4.82
2023-02-07T13:36:04.807Z,5.63
2023-02-07T13:38:56.395Z,4.38
2023-02-07T13:42:20.709Z,7.55
2023-02-07T13:45:04.323Z,6.05
2023-02-07T13:47:53.908Z,4.68
2023-02-07T13:50:41.577Z,8.52
2023-02-07T13:53:33.303Z,7.85
2023-02-07T13:56:30.776Z,4.90
2023-02-07T13:59:16.552Z,6.45
2023-02-07T14:01:52.369Z,8.45
2023-02-07T14:04:22.110Z,8.27
2023-02-07T14:07:05.286Z,6.40
2023-02-07T14:12:24.728Z,6.68
2023-02-07T14:15:02.252Z,4.70
2023-02-07T14:17:30.178Z,4.70
2023-02-07T14:19:59.916Z,4.28
2023-02-07T14:22:51.158Z,5.25
2023-02-07T14:25:31.516Z,5.65
2023-02-07T14:28:20.423Z,5.50
2023-02-07T14:30:53.615Z,6.32
2023-02-07T14:33:34.832Z,5.95
2023-02-07T14:36:12.569Z,5.32
2023-02-07T14:39:06.929Z,6.25
2023-02-07T14:41:39.229Z,5.93
2023-02-07T14:44:26.654Z,5.55
2023-02-07T14:46:58.007Z,6.40
2023-02-07T14:49:51.194Z,4.65
2023-02-07T14:52:31.019Z,4.72
2023-02-07T14:55:28.847Z,4.40
2023-02-07T14:58:12.717Z,5.07
2023-02-07T15:00:56.260Z,6.00
2023-02-07T15:03:23.162Z,5.20
2023-02-07T15:05:59.534Z,15.23
2023-02-07T15:08:30.537Z,7.28
2023-02-07T15:11:05.290Z,6.18
2023-02-07T15:13:47.834Z,11.82
2023-02-07T15:16:31.111Z,6.90
2023-02-07T15:19:04.432Z,5.78
2023-02-07T15:21:41.881Z,6.18
2023-02-07T15:24:20.336Z,6.50
2023-02-07T15:26:57.520Z,5.95
2023-02-07T15:29:34.923Z,7.82
2023-02-07T15:32:20.073Z,9.95
2023-02-07T15:34:47.102Z,22.73
2023-02-07T15:37:20.040Z,25.95
2023-02-07T15:42:20.789Z,10.63
2023-02-07T15:47:28.237Z,6.10
2023-02-07T15:50:20.335Z,9.40
2023-02-07T15:52:53.820Z,17.33
2023-02-07T15:55:41.458Z,20.20
2023-02-07T15:58:21.161Z,14.88
2023-02-07T16:00:49.289Z,13.10
2023-02-07T16:03:23.273Z,12.52
2023-02-07T16:06:20.737Z,11.27
2023-02-07T16:09:00.835Z,11.70
2023-02-07T16:11:30.712Z,8.75
2023-02-07T16:14:25.697Z,7.40
2023-02-07T16:16:55.600Z,18.23
2023-02-07T16:19:31.885Z,45.50
2023-02-07T16:22:16.419Z,32.47
2023-02-07T16:24:47.239Z,48.92
2023-02-07T16:27:27.465Z,36.53
2023-02-07T16:29:55.401Z,14.95
2023-02-07T16:32:23.798Z,12.38
2023-02-07T16:34:59.695Z,10.98
2023-02-07T16:37:28.962Z,12.60
2023-02-07T16:39:55.964Z,11.23
2023-02-07T16:42:23.077Z,10.00
2023-02-07T16:44:50.175Z,10.90
2023-02-07T16:47:18.953Z,10.48
2023-02-07T16:49:46.820Z,10.82
2023-02-07T16:52:13.971Z,11.02
2023-02-07T16:54:40.934Z,13.10
2023-02-07T16:57:11.245Z,14.43
2023-02-07T16:59:38.305Z,18.95
2023-02-07T17:02:15.073Z,21.13
2023-02-07T17:04:42.185Z,27.38
2023-02-07T17:07:12.513Z,35.63
2023-02-07T17:09:39.430Z,31.10
2023-02-07T17:12:07.417Z,29.75
2023-02-07T17:14:36.400Z,30.42
2023-02-07T17:17:03.368Z,29.27
2023-02-07T17:19:30.329Z,30.35
2023-02-07T17:21:57.332Z,23.20
2023-02-07T17:24:24.417Z,23.85
2023-02-07T17:26:54.448Z,26.90
2023-02-07T17:29:21.899Z,25.80
2023-02-07T17:31:49.724Z,37.90
2023-02-07T17:34:17.087Z,101.80
2023-02-07T17:36:49.179Z,64.40
2023-02-07T17:39:18.933Z,33.13
2023-02-07T17:41:46.045Z,20.92
2023-02-07T17:44:12.922Z,22.25
2023-02-07T17:46:40.053Z,20.50
2023-02-07T17:49:14.751Z,23.08
2023-02-07T17:51:42.089Z,21.08
2023-02-07T17:54:09.324Z,18.35
2023-02-07T17:56:36.441Z,22.73
2023-02-07T17:59:07.383Z,17.33
2023-02-07T18:01:34.703Z,17.58
2023-02-07T18:04:02.752Z,19.73
2023-02-07T18:06:31.295Z,18.48
2023-02-07T18:08:58.964Z,18.58
2023-02-07T18:11:27.288Z,20.70
2023-02-07T18:13:56.833Z,20.92
2023-02-07T18:16:26.788Z,21.02
2023-02-07T18:18:56.983Z,25.45
2023-02-07T18:21:25.008Z,43.72
2023-02-07T18:23:54.824Z,44.10
2023-02-07T18:26:22.344Z,43.65
2023-02-07T18:28:50.360Z,38.42
2023-02-07T18:31:22.288Z,26.40
2023-02-07T18:33:51.050Z,33.28
2023-02-07T18:36:19.150Z,28.02
2023-02-07T18:38:46.308Z,26.02
2023-02-07T18:41:21.104Z,26.73
2023-02-07T18:43:48.882Z,24.80
2023-02-07T18:46:21.244Z,27.42
2023-02-07T18:48:53.532Z,27.80
2023-02-07T18:51:20.443Z,29.00
2023-02-07T18:53:50.776Z,53.55
2023-02-07T18:56:22.238Z,155.10
2023-02-07T18:58:52.953Z,258.02
2023-02-07T19:01:21.056Z,209.95
2023-02-07T19:03:54.721Z,142.02
2023-02-07T19:06:26.304Z,109.57
2023-02-07T19:23:08.076Z,99.53
2023-02-07T19:25:52.240Z,83.90
2023-02-07T19:28:20.383Z,78.38
2023-02-07T19:30:48.431Z,71.00
2023-02-07T19:33:16.236Z,71.20
2023-02-07T19:35:43.516Z,69.05
2023-02-07T19:38:10.824Z,73.30
2023-02-07T19:40:38.431Z,67.53
2023-02-07T19:43:05.691Z,58.90
2023-02-07T19:45:33.606Z,58.35
2023-02-07T19:48:00.966Z,42.75
2023-02-07T19:50:28.195Z,37.30
2023-02-07T19:52:55.420Z,35.67
2023-02-07T19:55:22.742Z,50.22
2023-02-07T19:57:49.801Z,49.45
2023-02-07T20:00:18.096Z,36.05
2023-02-07T20:02:45.298Z,26.80
2023-02-07T20:05:12.359Z,23.50
2023-02-07T20:07:39.445Z,23.48
2023-02-07T20:10:07.279Z,20.52
2023-02-07T20:12:34.445Z,22.52
2023-02-07T20:15:01.490Z,44.10
2023-02-07T20:17:28.817Z,26.40
2023-02-07T20:19:55.896Z,26.02
2023-02-07T20:22:22.947Z,24.05
2023-02-07T20:24:50.277Z,22.10
2023-02-07T20:27:17.515Z,22.95
2023-02-07T20:29:44.876Z,21.85
2023-02-07T20:32:14.125Z,19.73
2023-02-07T20:34:41.220Z,20.42
2023-02-07T20:37:10.463Z,18.48
2023-02-07T20:39:38.613Z,18.60
2023-02-07T20:42:06.141Z,17.25
2023-02-07T20:44:33.329Z,17.50
2023-02-07T20:47:00.680Z,17.75
2023-02-07T20:49:31.594Z,17.65
2023-02-07T20:52:00.066Z,16.90
2023-02-07T20:54:29.483Z,15.75
2023-02-07T20:57:00.639Z,16.85
2023-02-07T20:59:32.773Z,16.27
2023-02-07T21:02:00.822Z,15.75
2023-02-07T21:04:29.120Z,15.50
2023-02-07T21:06:56.763Z,15.88
2023-02-07T21:09:24.405Z,16.27
2023-02-07T21:11:53.354Z,16.23
2023-02-07T21:14:27.861Z,16.33
2023-02-07T21:16:57.723Z,16.85
2023-02-07T21:19:25.896Z,17.55
2023-02-07T21:21:55.127Z,17.63
2023-02-07T21:24:22.850Z,16.98
2023-02-07T21:26:53.004Z,17.65
2023-02-07T21:29:21.440Z,16.98
2023-02-07T21:31:49.953Z,18.05
2023-02-07T21:34:21.701Z,17.73
2023-02-07T21:36:50.153Z,18.13
2023-02-07T21:39:17.696Z,17.08
2023-02-07T21:41:47.087Z,17.10
2023-02-07T21:44:15.519Z,17.63
2023-02-07T21:46:46.226Z,18.35
2023-02-07T21:49:18.025Z,17.02
2023-02-07T21:51:48.146Z,20.30
2023-02-07T21:54:15.988Z,27.52
2023-02-07T21:56:44.676Z,35.05
2023-02-07T21:59:16.260Z,32.67
2023-02-07T22:01:44.954Z,26.17
2023-02-07T22:04:14.328Z,25.23
2023-02-07T22:06:43.711Z,23.58
2023-02-07T22:09:16.561Z,24.00
2023-02-07T22:11:44.069Z,24.35
2023-02-07T22:14:15.752Z,24.08
2023-02-07T22:16:43.658Z,24.10
2023-02-07T22:19:13.980Z,21.63
2023-02-07T22:21:41.195Z,19.00
2023-02-07T22:24:09.915Z,19.05
2023-02-07T22:26:36.904Z,19.10
2023-02-07T22:29:06.786Z,17.35
2023-02-07T22:31:38.132Z,17.42
2023-02-07T22:34:14.589Z,17.67
2023-02-07T22:36:44.761Z,17.40
2023-02-07T22:39:15.251Z,18.67
2023-02-07T22:41:42.885Z,18.30
2023-02-07T22:44:10.203Z,17.80
2023-02-07T22:46:37.402Z,18.08
2023-02-07T22:49:04.636Z,16.42
2023-02-07T22:51:36.451Z,16.00
2023-02-07T22:54:07.805Z,16.75
2023-02-07T22:56:37.879Z,16.58
2023-02-07T22:59:06.212Z,16.60
2023-02-07T23:01:38.898Z,16.15
2023-02-07T23:06:35.546Z,15.43
2023-02-07T23:09:05.361Z,19.23
2023-02-07T23:11:32.837Z,18.48
2023-02-07T23:13:59.951Z,21.48
2023-02-07T23:16:31.142Z,21.20
2023-02-07T23:19:04.773Z,21.08
2023-02-07T23:21:31.799Z,21.85
2023-02-07T23:23:59.060Z,19.92
2023-02-07T23:26:28.001Z,19.05
2023-02-07T23:28:55.128Z,18.95
2023-02-07T23:31:25.051Z,19.75
2023-02-07T23:33:53.935Z,16.77
2023-02-07T23:36:21.815Z,15.05
2023-02-07T23:38:50.504Z,15.40
2023-02-07T23:41:18.458Z,15.48
2023-02-07T23:43:46.657Z,14.20
2023-02-07T23:46:15.262Z,15.75
2023-02-07T23:48:42.410Z,14.52
2023-02-07T23:51:12.821Z,14.52
2023-02-07T23:53:39.962Z,15.07
2023-02-07T23:56:07.834Z,12.88
2023-02-07T23:58:35.164Z,13.25
